createdAt,value
2022-09-21T00:01:17.254Z,4.45
2022-09-21T00:03:45.555Z,4.29
2022-09-21T00:06:15.728Z,4.21
2022-09-21T00:08:43.539Z,4.15
2022-09-21T00:11:15.660Z,4.06
2022-09-21T00:13:43.385Z,4.31
2022-09-21T00:16:10.887Z,4.44
2022-09-21T00:18:38.472Z,4.59
2022-09-21T00:21:10.991Z,4.64
2022-09-21T00:23:38.333Z,4.84
2022-09-21T00:26:21.660Z,4.88
2022-09-21T00:29:02.333Z,4.40
2022-09-21T00:31:31.188Z,4.19
2022-09-21T00:34:00.180Z,4.13
2022-09-21T00:36:28.316Z,4.04
2022-09-21T00:38:58.715Z,4.05
2022-09-21T00:41:26.881Z,3.88
2022-09-21T00:44:15.869Z,3.73
2022-09-21T00:46:43.750Z,3.68
2022-09-21T00:49:11.085Z,3.60
2022-09-21T00:51:38.763Z,4.01
2022-09-21T00:54:10.409Z,4.54
2022-09-21T00:56:37.968Z,4.28
2022-09-21T00:59:05.813Z,4.43
2022-09-21T01:01:34.201Z,4.78
2022-09-21T01:04:01.768Z,5.18
2022-09-21T01:06:29.204Z,4.75
2022-09-21T01:08:59.127Z,4.33
2022-09-21T01:11:44.793Z,3.94
2022-09-21T01:14:23.304Z,3.62
2022-09-21T01:17:03.401Z,3.40
2022-09-21T01:19:45.885Z,3.34
2022-09-21T01:22:50.815Z,3.38
2022-09-21T01:25:30.224Z,3.32
2022-09-21T01:28:03.257Z,3.33
2022-09-21T01:30:32.182Z,3.49
2022-09-21T01:33:10.923Z,4.34
2022-09-21T01:35:59.987Z,4.17
2022-09-21T01:38:30.466Z,3.77
2022-09-21T01:41:02.622Z,3.56
2022-09-21T01:43:36.670Z,3.40
2022-09-21T01:46:06.053Z,3.90
2022-09-21T01:48:37.028Z,3.99
2022-09-21T01:51:07.477Z,4.04
2022-09-21T01:53:47.108Z,3.59
2022-09-21T01:56:27.021Z,3.39
2022-09-21T01:59:03.132Z,3.86
2022-09-21T02:01:34.531Z,4.10
2022-09-21T02:04:10.350Z,4.35
2022-09-21T02:06:40.119Z,4.02
2022-09-21T02:09:08.717Z,3.65
2022-09-21T02:11:38.824Z,3.43
2022-09-21T02:14:10.183Z,3.38
2022-09-21T02:16:46.885Z,3.36
2022-09-21T02:19:30.145Z,3.38
2022-09-21T02:22:10.113Z,3.35
2022-09-21T02:24:48.029Z,3.43
2022-09-21T02:27:21.077Z,3.80
2022-09-21T02:29:54.774Z,4.12
2022-09-21T02:32:21.960Z,4.28
2022-09-21T02:35:17.119Z,3.89
2022-09-21T02:37:55.469Z,3.59
2022-09-21T02:40:27.962Z,3.64
2022-09-21T02:43:00.073Z,3.54
2022-09-21T02:45:42.527Z,3.33
2022-09-21T02:48:17.076Z,3.37
2022-09-21T02:51:00.302Z,3.58
2022-09-21T02:53:31.921Z,3.26
2022-09-21T02:56:03.845Z,2.90
2022-09-21T02:58:32.729Z,2.87
2022-09-21T03:01:00.434Z,2.90
2022-09-21T03:03:27.782Z,2.74
2022-09-21T03:05:56.060Z,2.59
2022-09-21T03:08:23.433Z,2.61
2022-09-21T03:10:50.996Z,2.59
2022-09-21T03:13:18.945Z,2.51
2022-09-21T03:15:47.185Z,2.47
2022-09-21T03:18:15.031Z,2.47
2022-09-21T03:20:47.933Z,2.89
2022-09-21T03:23:15.326Z,2.66
2022-09-21T03:25:46.054Z,3.17
2022-09-21T03:28:14.677Z,2.90
2022-09-21T03:30:42.513Z,3.14
2022-09-21T03:33:10.243Z,3.02
2022-09-21T03:35:37.824Z,3.41
2022-09-21T03:38:05.529Z,2.94
2022-09-21T03:40:33.565Z,2.70
2022-09-21T03:43:01.145Z,2.62
2022-09-21T03:45:28.523Z,2.91
2022-09-21T03:47:57.681Z,3.04
2022-09-21T03:50:26.439Z,2.78
2022-09-21T03:52:53.853Z,2.59
2022-09-21T03:55:21.366Z,2.43
2022-09-21T03:57:49.431Z,2.41
2022-09-21T04:00:16.970Z,2.39
2022-09-21T04:02:44.331Z,2.33
2022-09-21T04:05:14.841Z,2.23
2022-09-21T04:07:45.590Z,2.48
2022-09-21T04:10:33.105Z,2.34
2022-09-21T04:13:04.365Z,2.37
2022-09-21T04:15:31.882Z,2.42
2022-09-21T04:17:59.188Z,2.47
2022-09-21T04:20:26.568Z,2.63
2022-09-21T04:22:53.909Z,2.59
2022-09-21T04:25:21.281Z,2.64
2022-09-21T04:27:48.708Z,2.53
2022-09-21T04:30:16.866Z,2.77
2022-09-21T04:32:44.658Z,2.58
2022-09-21T04:35:12.028Z,2.64
2022-09-21T04:37:39.575Z,2.39
2022-09-21T04:40:07.971Z,2.51
2022-09-21T04:42:35.344Z,2.79
2022-09-21T04:45:02.730Z,2.50
2022-09-21T04:47:31.201Z,2.44
2022-09-21T04:49:58.485Z,2.79
2022-09-21T04:52:26.137Z,2.81
2022-09-21T04:54:53.436Z,2.46
2022-09-21T04:57:20.754Z,2.46
2022-09-21T04:59:48.073Z,2.35
2022-09-21T05:02:15.568Z,2.10
2022-09-21T05:04:45.450Z,1.99
2022-09-21T05:07:14.995Z,2.45
2022-09-21T05:10:00.865Z,2.74
2022-09-21T05:12:28.160Z,2.88
2022-09-21T05:14:56.025Z,2.50
2022-09-21T05:17:23.513Z,2.49
2022-09-21T05:19:51.629Z,2.73
2022-09-21T05:22:19.118Z,2.94
2022-09-21T05:24:46.438Z,3.05
2022-09-21T05:27:13.993Z,2.83
2022-09-21T05:29:42.304Z,2.32
2022-09-21T05:32:42.216Z,2.30
2022-09-21T05:35:34.508Z,2.47
2022-09-21T05:38:13.478Z,2.84
2022-09-21T05:40:40.942Z,2.69
2022-09-21T05:43:09.516Z,2.66
2022-09-21T05:45:39.886Z,2.74
2022-09-21T05:48:49.357Z,2.99
2022-09-21T05:51:19.653Z,3.21
2022-09-21T05:53:53.178Z,3.86
2022-09-21T05:56:44.598Z,4.50
2022-09-21T05:59:35.799Z,4.89
2022-09-21T06:02:42.166Z,5.48
2022-09-21T06:05:14.736Z,5.89
2022-09-21T06:07:42.385Z,6.36
2022-09-21T06:10:12.038Z,7.00
2022-09-21T06:12:39.612Z,6.71
2022-09-21T06:15:08.411Z,7.97
2022-09-21T06:17:35.727Z,7.54
2022-09-21T06:20:03.493Z,8.26
2022-09-21T06:22:30.749Z,9.41
2022-09-21T06:24:58.964Z,9.52
2022-09-21T06:27:27.551Z,9.63
2022-09-21T06:29:54.824Z,10.35
2022-09-21T06:32:22.119Z,11.07
2022-09-21T06:34:49.923Z,11.91
2022-09-21T06:37:17.373Z,11.73
2022-09-21T06:39:44.637Z,11.43
2022-09-21T06:42:11.954Z,12.32
2022-09-21T06:44:39.325Z,11.98
2022-09-21T06:47:06.687Z,11.86
2022-09-21T06:49:34.031Z,12.43
2022-09-21T06:52:01.550Z,11.81
2022-09-21T06:54:28.880Z,12.56
2022-09-21T06:56:59.911Z,13.60
2022-09-21T06:59:27.393Z,13.59
2022-09-21T07:01:58.288Z,12.62
2022-09-21T07:04:25.860Z,13.00
2022-09-21T07:06:53.610Z,13.38
2022-09-21T07:12:08.294Z,13.13
2022-09-21T07:14:35.615Z,13.81
2022-09-21T07:17:02.904Z,13.96
2022-09-21T07:19:30.262Z,14.48
2022-09-21T07:21:57.533Z,14.10
2022-09-21T07:24:24.781Z,15.27
2022-09-21T07:26:52.888Z,15.62
2022-09-21T07:29:20.116Z,16.38
2022-09-21T07:31:48.478Z,16.24
2022-09-21T07:34:15.982Z,17.53
2022-09-21T07:36:43.344Z,16.78
2022-09-21T07:39:11.187Z,16.80
2022-09-21T07:41:39.029Z,17.54
2022-09-21T07:44:06.355Z,19.00
2022-09-21T07:46:33.656Z,18.89
2022-09-21T07:49:00.921Z,18.48
2022-09-21T07:51:28.229Z,16.64
2022-09-21T07:53:56.833Z,17.73
2022-09-21T07:56:24.634Z,16.27
2022-09-21T07:59:07.585Z,16.57
2022-09-21T08:01:37.536Z,17.77
2022-09-21T08:04:07.244Z,18.56
2022-09-21T08:06:35.821Z,17.43
2022-09-21T08:09:04.431Z,19.51
2022-09-21T08:11:33.149Z,18.89
2022-09-21T08:14:02.297Z,18.83
2022-09-21T08:16:30.740Z,18.32
2022-09-21T08:18:58.256Z,18.97
2022-09-21T08:21:25.576Z,18.07
2022-09-21T08:23:52.931Z,19.37
2022-09-21T08:26:21.261Z,20.50
2022-09-21T08:28:51.396Z,20.77
2022-09-21T08:31:20.532Z,20.61
2022-09-21T08:33:48.967Z,20.88
2022-09-21T08:36:16.546Z,21.55
2022-09-21T08:38:43.926Z,22.36
2022-09-21T08:41:29.423Z,22.72
2022-09-21T08:44:05.368Z,22.22
2022-09-21T08:46:33.656Z,23.01
2022-09-21T08:49:17.252Z,23.91
2022-09-21T08:52:09.483Z,24.13
2022-09-21T08:54:48.109Z,25.16
2022-09-21T08:57:16.265Z,23.62
2022-09-21T08:59:48.605Z,22.44
2022-09-21T09:02:38.446Z,23.33
2022-09-21T09:05:25.919Z,22.50
2022-09-21T09:08:28.656Z,22.41
2022-09-21T09:11:25.678Z,21.29
2022-09-21T09:14:19.036Z,23.04
2022-09-21T09:17:14.021Z,23.73
2022-09-21T09:20:01.556Z,23.91
2022-09-21T09:22:38.233Z,25.29
2022-09-21T09:25:12.513Z,21.44
2022-09-21T09:27:43.158Z,21.64
2022-09-21T09:30:21.696Z,23.69
2022-09-21T09:33:24.658Z,25.80
2022-09-21T09:36:13.021Z,22.69
2022-09-21T09:38:49.383Z,24.03
2022-09-21T09:41:25.620Z,24.14
2022-09-21T09:44:07.789Z,22.33
2022-09-21T09:46:45.261Z,22.49
2022-09-21T09:49:28.768Z,20.13
2022-09-21T09:51:56.238Z,21.74
2022-09-21T09:54:26.549Z,24.37
2022-09-21T09:56:55.112Z,25.06
2022-09-21T09:59:44.056Z,25.84
2022-09-21T10:02:25.709Z,25.42
2022-09-21T10:05:01.464Z,25.07
2022-09-21T10:07:43.444Z,25.54
2022-09-21T10:10:37.422Z,26.36
2022-09-21T10:13:23.592Z,24.67
2022-09-21T10:15:59.752Z,23.97
2022-09-21T10:18:43.728Z,25.03
2022-09-21T10:21:24.166Z,25.62
2022-09-21T10:23:57.150Z,25.91
2022-09-21T10:26:24.907Z,24.50
2022-09-21T10:29:00.570Z,22.80
2022-09-21T10:31:31.807Z,20.39
2022-09-21T10:34:13.110Z,21.34
2022-09-21T10:36:40.558Z,20.45
2022-09-21T10:39:25.772Z,18.78
2022-09-21T10:42:03.480Z,18.43
2022-09-21T10:44:38.280Z,18.14
2022-09-21T10:47:18.574Z,17.19
2022-09-21T10:49:55.307Z,16.60
2022-09-21T10:52:26.051Z,16.43
2022-09-21T10:54:55.896Z,18.72
2022-09-21T10:57:24.971Z,21.03
2022-09-21T10:59:52.384Z,21.09
2022-09-21T11:02:33.050Z,20.28
2022-09-21T11:05:21.419Z,19.93
2022-09-21T11:07:53.580Z,19.31
2022-09-21T11:10:41.375Z,18.56
2022-09-21T11:13:20.854Z,17.22
2022-09-21T11:16:22.206Z,17.02
2022-09-21T11:19:18.796Z,16.59
2022-09-21T11:21:48.913Z,16.57
2022-09-21T11:24:37.995Z,16.43
2022-09-21T11:27:24.497Z,16.86
2022-09-21T11:30:04.203Z,17.18
2022-09-21T11:32:56.926Z,16.99
2022-09-21T11:35:33.472Z,16.89
2022-09-21T11:38:18.616Z,18.15
2022-09-21T11:41:08.376Z,19.86
2022-09-21T11:44:06.261Z,20.12
2022-09-21T11:46:37.709Z,18.75
2022-09-21T11:49:42.574Z,19.24
2022-09-21T11:52:32.459Z,19.16
2022-09-21T11:55:16.299Z,19.41
2022-09-21T11:57:52.851Z,18.08
2022-09-21T12:00:23.199Z,19.23
2022-09-21T12:03:15.364Z,19.78
2022-09-21T12:05:48.716Z,19.54
2022-09-21T12:08:40.635Z,20.08
2022-09-21T12:11:21.143Z,19.60
2022-09-21T12:13:50.522Z,20.56
2022-09-21T12:16:22.391Z,20.38
2022-09-21T12:19:04.479Z,21.66
2022-09-21T12:21:37.157Z,21.75
2022-09-21T12:24:13.876Z,22.42
2022-09-21T12:26:44.966Z,22.48
2022-09-21T12:29:25.404Z,22.46
2022-09-21T12:32:37.145Z,22.14
2022-09-21T12:35:12.709Z,22.34
2022-09-21T12:37:53.664Z,21.36
2022-09-21T12:40:55.193Z,19.87
2022-09-21T12:43:22.451Z,19.05
2022-09-21T12:46:01.149Z,18.30
2022-09-21T12:48:38.905Z,17.96
2022-09-21T12:51:26.667Z,17.04
2022-09-21T12:53:55.579Z,16.96
2022-09-21T12:56:37.581Z,16.93
2022-09-21T12:59:19.772Z,16.66
2022-09-21T13:02:15.475Z,17.19
2022-09-21T13:05:01.235Z,19.79
2022-09-21T13:07:59.629Z,20.26
2022-09-21T13:10:39.752Z,19.39
2022-09-21T13:13:18.237Z,19.83
2022-09-21T13:15:48.633Z,18.94
2022-09-21T13:18:38.640Z,17.92
2022-09-21T13:21:20.163Z,18.87
2022-09-21T13:24:03.475Z,19.79
2022-09-21T13:26:40.513Z,19.31
2022-09-21T13:29:20.329Z,18.67
2022-09-21T13:32:13.957Z,18.14
2022-09-21T13:34:43.318Z,17.90
2022-09-21T13:37:19.575Z,17.61
2022-09-21T13:40:02.313Z,17.19
2022-09-21T13:42:33.027Z,17.17
2022-09-21T13:45:21.366Z,17.04
2022-09-21T13:47:51.228Z,16.89
2022-09-21T13:50:25.159Z,16.59
2022-09-21T13:53:07.503Z,16.31
2022-09-21T13:55:40.111Z,16.23
2022-09-21T13:58:30.493Z,16.29
2022-09-21T14:01:03.448Z,16.43
2022-09-21T14:03:37.288Z,16.41
2022-09-21T14:06:15.715Z,16.19
2022-09-21T14:09:08.989Z,16.15
2022-09-21T14:11:38.018Z,16.18
2022-09-21T14:14:18.393Z,16.09
2022-09-21T14:16:52.544Z,16.17
2022-09-21T14:19:19.791Z,16.27
2022-09-21T14:22:20.137Z,16.08
2022-09-21T14:24:51.083Z,16.26
2022-09-21T14:27:45.502Z,16.34
2022-09-21T14:30:25.380Z,16.41
2022-09-21T14:33:00.939Z,16.22
2022-09-21T14:35:34.260Z,15.76
2022-09-21T14:38:05.624Z,15.46
2022-09-21T14:40:38.996Z,15.23
2022-09-21T14:43:16.535Z,15.07
2022-09-21T14:45:59.072Z,15.17
2022-09-21T14:48:38.716Z,15.37
2022-09-21T14:51:34.661Z,15.55
2022-09-21T14:54:05.087Z,15.58
2022-09-21T14:57:04.924Z,15.61
2022-09-21T14:59:47.002Z,15.62
2022-09-21T15:02:22.472Z,15.63
2022-09-21T15:05:21.598Z,15.62
2022-09-21T15:08:43.827Z,15.74
2022-09-21T15:11:28.458Z,15.87
2022-09-21T15:14:24.199Z,15.92
2022-09-21T15:16:52.060Z,15.77
2022-09-21T15:19:27.114Z,15.66
2022-09-21T15:21:56.578Z,15.59
2022-09-21T15:24:34.090Z,15.63
2022-09-21T15:27:05.955Z,15.71
2022-09-21T15:29:34.106Z,15.72
2022-09-21T15:32:01.978Z,15.78
2022-09-21T15:34:29.654Z,15.75
2022-09-21T15:37:15.619Z,15.85
2022-09-21T15:39:43.140Z,15.89
2022-09-21T15:42:10.621Z,15.82
2022-09-21T15:44:39.501Z,15.77
2022-09-21T15:47:13.140Z,15.71
2022-09-21T15:49:41.480Z,15.71
2022-09-21T15:52:13.884Z,15.69
2022-09-21T15:54:43.170Z,15.63
2022-09-21T15:57:36.332Z,15.42
2022-09-21T16:00:18.242Z,15.26
2022-09-21T16:03:08.335Z,15.21
2022-09-21T16:05:54.342Z,15.15
2022-09-21T16:08:28.441Z,15.05
2022-09-21T16:11:11.554Z,14.93
2022-09-21T16:13:57.508Z,14.76
2022-09-21T16:16:24.953Z,14.53
2022-09-21T16:18:55.187Z,14.32
2022-09-21T16:21:34.880Z,14.35
2022-09-21T16:24:18.831Z,14.46
2022-09-21T16:27:05.635Z,14.48
2022-09-21T16:29:42.506Z,14.41
2022-09-21T16:32:19.065Z,14.46
2022-09-21T16:34:48.256Z,14.35
2022-09-21T16:37:24.427Z,14.26
2022-09-21T16:39:56.152Z,14.21
2022-09-21T16:42:28.169Z,14.16
2022-09-21T16:44:55.877Z,14.06
2022-09-21T16:47:25.481Z,14.06
2022-09-21T16:50:02.885Z,13.94
2022-09-21T16:52:30.906Z,13.87
2022-09-21T16:54:58.782Z,13.80
2022-09-21T16:57:26.872Z,13.77
2022-09-21T16:59:54.610Z,13.69
2022-09-21T17:02:22.017Z,13.58
2022-09-21T17:04:49.351Z,13.50
2022-09-21T17:07:18.608Z,13.61
2022-09-21T17:09:47.685Z,13.40
2022-09-21T17:12:17.709Z,13.35
2022-09-21T17:14:46.995Z,13.28
2022-09-21T17:17:14.762Z,13.21
2022-09-21T17:19:42.163Z,13.06
2022-09-21T17:22:17.135Z,12.91
2022-09-21T17:24:52.039Z,12.76
2022-09-21T17:27:22.522Z,12.65
2022-09-21T17:29:50.528Z,12.60
2022-09-21T17:32:20.533Z,12.47
2022-09-21T17:34:54.719Z,12.29
2022-09-21T17:37:22.099Z,12.15
2022-09-21T17:39:49.843Z,11.93
2022-09-21T17:42:19.217Z,11.89
2022-09-21T17:45:12.762Z,11.99
2022-09-21T17:47:41.111Z,11.90
2022-09-21T17:50:14.305Z,11.91
2022-09-21T17:53:01.779Z,11.84
2022-09-21T17:55:29.246Z,11.69
2022-09-21T17:58:29.649Z,11.51
2022-09-21T18:01:04.756Z,11.37
2022-09-21T18:03:37.686Z,11.28
2022-09-21T18:06:05.395Z,11.25
2022-09-21T18:08:35.650Z,11.22
2022-09-21T18:11:24.763Z,11.08
2022-09-21T18:14:00.908Z,10.91
2022-09-21T18:16:34.252Z,10.88
2022-09-21T18:19:21.208Z,10.82
2022-09-21T18:21:52.668Z,10.78
2022-09-21T18:24:33.379Z,10.65
2022-09-21T18:27:01.724Z,10.57
2022-09-21T18:29:40.685Z,10.28
2022-09-21T18:32:23.883Z,10.19
2022-09-21T18:35:10.411Z,10.18
2022-09-21T18:38:00.732Z,9.67
2022-09-21T18:40:28.090Z,9.22
2022-09-21T18:43:09.697Z,8.98
2022-09-21T18:45:46.267Z,9.15
2022-09-21T18:48:52.468Z,9.27
2022-09-21T18:51:33.925Z,9.13
2022-09-21T18:54:01.403Z,8.64
2022-09-21T18:56:34.101Z,8.96
2022-09-21T18:59:02.778Z,8.49
2022-09-21T19:01:33.605Z,8.37
2022-09-21T19:04:01.800Z,8.50
2022-09-21T19:06:46.217Z,8.75
2022-09-21T19:09:17.438Z,8.81
2022-09-21T19:11:52.737Z,8.63
2022-09-21T19:14:44.549Z,8.44
2022-09-21T19:17:42.351Z,8.70
2022-09-21T19:20:24.074Z,8.57
2022-09-21T19:23:39.463Z,8.56
2022-09-21T19:26:12.073Z,8.44
2022-09-21T19:28:45.085Z,8.46
2022-09-21T19:31:14.880Z,8.38
2022-09-21T19:33:51.163Z,8.36
2022-09-21T19:36:19.616Z,8.29
2022-09-21T19:38:47.071Z,8.18
2022-09-21T19:41:35.248Z,8.11
2022-09-21T19:44:10.303Z,7.97
2022-09-21T19:46:46.622Z,7.93
2022-09-21T19:49:19.208Z,7.82
2022-09-21T19:51:51.646Z,7.70
2022-09-21T19:54:42.580Z,7.64
2022-09-21T19:57:39.598Z,7.53
2022-09-21T20:00:09.651Z,7.47
2022-09-21T20:02:45.482Z,7.33
2022-09-21T20:05:28.269Z,7.39
2022-09-21T20:08:18.910Z,7.54
2022-09-21T20:10:58.445Z,7.54
2022-09-21T20:13:53.709Z,7.52
2022-09-21T20:16:40.643Z,7.32
2022-09-21T20:19:34.866Z,7.42
2022-09-21T20:22:09.323Z,7.40
2022-09-21T20:24:50.652Z,7.24
2022-09-21T20:27:35.128Z,7.44
2022-09-21T20:30:04.968Z,7.40
2022-09-21T20:32:33.124Z,7.37
2022-09-21T20:35:00.499Z,7.29
2022-09-21T20:37:29.752Z,7.36
2022-09-21T20:39:57.074Z,7.41
2022-09-21T20:42:26.666Z,7.53
2022-09-21T20:44:54.520Z,7.14
2022-09-21T20:47:21.828Z,7.35
2022-09-21T20:49:49.789Z,7.26
2022-09-21T20:52:17.561Z,7.11
2022-09-21T20:54:48.954Z,7.21
2022-09-21T20:57:17.486Z,7.13
2022-09-21T20:59:44.878Z,7.20
2022-09-21T21:02:13.302Z,7.20
2022-09-21T21:04:40.937Z,7.07
2022-09-21T21:07:08.185Z,6.83
2022-09-21T21:09:35.655Z,6.91
2022-09-21T21:12:03.105Z,6.99
2022-09-21T21:14:30.586Z,6.92
2022-09-21T21:16:58.113Z,6.70
2022-09-21T21:19:25.958Z,6.58
2022-09-21T21:21:53.221Z,6.72
2022-09-21T21:24:38.953Z,6.69
2022-09-21T21:27:16.905Z,6.62
2022-09-21T21:29:46.227Z,6.48
2022-09-21T21:32:14.793Z,6.17
2022-09-21T21:34:42.653Z,6.15
2022-09-21T21:37:11.031Z,6.03
2022-09-21T21:39:38.460Z,6.19
2022-09-21T21:42:06.197Z,6.06
2022-09-21T21:44:33.537Z,6.22
2022-09-21T21:47:15.441Z,6.11
2022-09-21T21:49:48.416Z,6.03
2022-09-21T21:52:15.902Z,5.90
2022-09-21T21:54:43.263Z,5.95
2022-09-21T21:57:10.540Z,6.08
2022-09-21T21:59:38.011Z,5.96
2022-09-21T22:02:05.588Z,6.12
2022-09-21T22:04:33.004Z,6.09
2022-09-21T22:07:00.352Z,5.96
2022-09-21T22:09:27.824Z,5.89
2022-09-21T22:11:55.140Z,5.86
2022-09-21T22:14:23.002Z,5.99
2022-09-21T22:16:51.339Z,6.06
2022-09-21T22:19:18.680Z,5.96
2022-09-21T22:21:51.664Z,6.04
2022-09-21T22:24:21.608Z,6.07
2022-09-21T22:26:49.156Z,6.09
2022-09-21T22:29:17.266Z,6.04
2022-09-21T22:31:49.441Z,5.99
2022-09-21T22:34:17.409Z,6.00
2022-09-21T22:36:45.058Z,5.86
2022-09-21T22:39:12.996Z,5.43
2022-09-21T22:41:42.043Z,5.44
2022-09-21T22:44:10.401Z,5.62
2022-09-21T22:46:37.961Z,5.72
2022-09-21T22:49:05.549Z,5.83
2022-09-21T22:51:33.062Z,5.79
2022-09-21T22:54:01.565Z,5.81
2022-09-21T22:56:33.141Z,5.69
2022-09-21T22:59:01.958Z,5.66
2022-09-21T23:01:33.381Z,5.69
2022-09-21T23:04:03.154Z,5.68
2022-09-21T23:06:33.724Z,5.22
2022-09-21T23:09:02.698Z,5.41
2022-09-21T23:11:34.189Z,5.03
2022-09-21T23:14:01.820Z,5.18
2022-09-21T23:16:29.989Z,5.18
2022-09-21T23:18:58.194Z,4.96
2022-09-21T23:21:27.425Z,4.92
2022-09-21T23:23:56.387Z,4.97
2022-09-21T23:26:26.051Z,5.00
2022-09-21T23:28:58.371Z,4.63
2022-09-21T23:31:26.904Z,4.37
2022-09-21T23:33:55.890Z,4.27
2022-09-21T23:36:28.654Z,4.40
2022-09-21T23:38:56.753Z,4.87
2022-09-21T23:41:32.588Z,4.82
2022-09-21T23:44:00.287Z,4.76
2022-09-21T23:46:30.144Z,4.45
2022-09-21T23:48:58.290Z,4.16
2022-09-21T23:51:25.747Z,3.99
2022-09-21T23:53:53.487Z,3.86
2022-09-21T23:56:22.649Z,3.82
2022-09-21T23:58:50.908Z,4.31
